MOL Courage — C6WX5 — position and weather

sailwx.info

Track history (hours):
 
Tides and Currents Weather Stations Pressure Air Temp Water Temp Dewpoint Dewpoint Depression Visibility Wind Speed Wind Dir Waves Ship Positions

MOL Courage

Last reported at 2015-May-26 16:18 UTC. Time now 2015-May-29 20:21 UTC.
Position N 38°28' W 123°54'.

Length 316 m; draft 11.4 m.

Type: Ship (hazmat cat A). MMSI: 311001700.

Date/timePositionNaut miles runAvg speedWind from/ knotsBaromVisibWave heightAir tempDewpointWater temp
2015-May-26 16:18N 38°28' W 123°54'1318.0
2015-May-26 15:33N 38°20' W 123°40'1716.7
2015-May-26 14:34N 38°11' W 123°23'10 9.8
2015-May-26 13:34N 38°04' W 123°14'9 9.5
2015-May-26 12:34N 37°57' W 123°05'9 9.5
2015-May-26 11:33N 37°52' W 122°55'12 9.9
2015-May-26 10:20N 37°46' W 122°42'1012.4
2015-May-26 09:33N 37°49' W 122°30'8 7.9
2015-May-26 08:33N 37°49' W 122°20'0 0.1
2015-May-26 07:33N 37°49' W 122°20'0 0.0
2015-May-26 06:33N 37°49' W 122°20'0 0.0
2015-May-26 05:33N 37°49' W 122°20'0 0.0
2015-May-26 04:33N 37°49' W 122°20'0 0.0
2015-May-26 03:33N 37°49' W 122°20'0 0.0
2015-May-26 02:33N 37°49' W 122°20'0 0.0
2015-May-26 01:33N 37°49' W 122°20'0 0.0
2015-May-26 00:21N 37°49' W 122°20'0 0.0
2015-May-25 23:33N 37°49' W 122°20'0 0.0
2015-May-25 22:33N 37°49' W 122°20'0 0.0
2015-May-25 21:27N 37°49' W 122°20'0 0.0
2015-May-25 20:27N 37°49' W 122°20'0 0.1
2015-May-25 19:33N 37°49' W 122°20'0 0.0
2015-May-25 18:15N 37°49' W 122°20'0 0.0
2015-May-25 17:33N 37°49' W 122°20'0 0.0
2015-May-25 16:27N 37°49' W 122°20'0 0.1
2015-May-25 15:33N 37°49' W 122°20'0 0.0
2015-May-25 14:30N 37°49' W 122°20'0 0.0
2015-May-25 13:30N 37°49' W 122°20'0 0.0
2015-May-25 12:27N 37°49' W 122°20'0 0.0
2015-May-25 11:33N 37°49' W 122°20'0 0.0
2015-May-25 10:27N 37°49' W 122°20'0 0.0
2015-May-25 09:33N 37°49' W 122°20'0 0.0
2015-May-25 08:27N 37°49' W 122°20'0 0.0
2015-May-25 07:18N 37°49' W 122°20'0 0.0
2015-May-25 06:21N 37°49' W 122°20'0 0.0
2015-May-25 05:30N 37°49' W 122°20'0 0.0
2015-May-25 04:33N 37°49' W 122°20'0 0.0
2015-May-25 03:30N 37°49' W 122°20'0 0.0
2015-May-25 02:24N 37°49' W 122°20'0 0.0
2015-May-25 01:33N 37°49' W 122°20'0 0.0
2015-May-25 00:33N 37°49' W 122°20'0 0.0
2015-May-24 23:24N 37°49' W 122°20'0 0.0
2015-May-24 22:30N 37°49' W 122°20'0 0.0
2015-May-24 21:33N 37°49' W 122°20'0 0.0
2015-May-24 20:33N 37°49' W 122°20'0 0.0
2015-May-24 19:33N 37°49' W 122°20'0 0.0
2015-May-24 18:33N 37°49' W 122°20'0 0.0
2015-May-24 17:33N 37°49' W 122°20'0 0.0
2015-May-24 16:33N 37°49' W 122°20'0 0.0
2015-May-24 15:33N 37°49' W 122°20'0 0.0
2015-May-24 14:21N 37°49' W 122°20'0 0.0
2015-May-24 13:33N 37°49' W 122°20'2 2.4
2015-May-24 12:33N 37°48' W 122°23'1512.9
2015-May-24 11:26N 37°45' W 122°41'7812.9
2015-May-24 05:23N 36°28' W 122°18'1721.3
2015-May-24 04:33N 36°13' W 122°09'2221.6
2015-May-24 03:33N 35°54' W 121°56'2921.4
2015-May-24 02:13N 35°28' W 121°40'19614.1
2015-May-23 12:17N 33°46' W 118°16'0 0.0
2015-May-23 11:32N 33°46' W 118°16'0 0.0
2015-May-23 07:32N 33°46' W 118°16'0 0.0
2015-May-23 06:33N 33°46' W 118°16'0 0.0
2015-May-23 05:33N 33°46' W 118°16'0 0.0
2015-May-23 01:28N 33°46' W 118°16'0 0.0
2015-May-23 00:33N 33°46' W 118°16'0 0.0
2015-May-22 23:34N 33°46' W 118°16'0 0.0
2015-May-22 22:33N 33°46' W 118°16'0 0.0
2015-May-22 21:33N 33°46' W 118°16'0 0.0
2015-May-22 20:34N 33°46' W 118°16'0 0.0
2015-May-22 19:33N 33°46' W 118°16'0 0.0
2015-May-22 18:34N 33°46' W 118°16'0 0.0
2015-May-22 17:33N 33°46' W 118°16'0 0.0
2015-May-22 16:34N 33°46' W 118°16'0 0.0
2015-May-22 15:31N 33°46' W 118°16'0 0.0
2015-May-22 14:19N 33°46' W 118°16'0 0.0
2015-May-22 01:22N 33°46' W 118°16'0 0.0
2015-May-22 00:33N 33°46' W 118°16'0 0.0
2015-May-21 23:30N 33°46' W 118°16'0 0.0
2015-May-21 22:34N 33°46' W 118°16'0 0.0
2015-May-21 21:34N 33°46' W 118°16'0 0.0
2015-May-21 20:34N 33°46' W 118°16'0 0.0
2015-May-21 19:34N 33°46' W 118°16'0 0.0
2015-May-21 18:34N 33°46' W 118°16'0 0.0
2015-May-21 17:34N 33°46' W 118°16'0 0.0
2015-May-21 16:33N 33°46' W 118°16'0 0.0
2015-May-21 15:34N 33°46' W 118°16'  
2015-May-18 22:25N 33°45' W 118°16'  
Track history (hours):
 
Tides and Currents Weather Stations Pressure Air Temp Water Temp Dewpoint Dewpoint Depression Visibility Wind Speed Wind Dir Waves Ship Positions

MOL Courage

Last reported at 2015-May-26 16:18 UTC. Time now 2015-May-29 20:21 UTC.
Position N 38°28' W 123°54'.

Length 316 m; draft 11.4 m.

Type: Ship (hazmat cat A). MMSI: 311001700.

Date/timePositionNaut miles runAvg speedWind from/ knotsBaromVisibWave heightAir tempDewpointWater temp
2015-May-26 16:18N 38°28' W 123°54'1318.0
2015-May-26 15:33N 38°20' W 123°40'1716.7
2015-May-26 14:34N 38°11' W 123°23'10 9.8
2015-May-26 13:34N 38°04' W 123°14'9 9.5
2015-May-26 12:34N 37°57' W 123°05'9 9.5
2015-May-26 11:33N 37°52' W 122°55'12 9.9
2015-May-26 10:20N 37°46' W 122°42'1012.4
2015-May-26 09:33N 37°49' W 122°30'8 7.9
2015-May-26 08:33N 37°49' W 122°20'0 0.1
2015-May-26 07:33N 37°49' W 122°20'0 0.0
2015-May-26 06:33N 37°49' W 122°20'0 0.0
2015-May-26 05:33N 37°49' W 122°20'0 0.0
2015-May-26 04:33N 37°49' W 122°20'0 0.0
2015-May-26 03:33N 37°49' W 122°20'0 0.0
2015-May-26 02:33N 37°49' W 122°20'0 0.0
2015-May-26 01:33N 37°49' W 122°20'0 0.0
2015-May-26 00:21N 37°49' W 122°20'0 0.0
2015-May-25 23:33N 37°49' W 122°20'0 0.0
2015-May-25 22:33N 37°49' W 122°20'0 0.0
2015-May-25 21:27N 37°49' W 122°20'0 0.0
2015-May-25 20:27N 37°49' W 122°20'0 0.1
2015-May-25 19:33N 37°49' W 122°20'0 0.0
2015-May-25 18:15N 37°49' W 122°20'0 0.0
2015-May-25 17:33N 37°49' W 122°20'0 0.0
2015-May-25 16:27N 37°49' W 122°20'0 0.1
2015-May-25 15:33N 37°49' W 122°20'0 0.0
2015-May-25 14:30N 37°49' W 122°20'0 0.0
2015-May-25 13:30N 37°49' W 122°20'0 0.0
2015-May-25 12:27N 37°49' W 122°20'0 0.0
2015-May-25 11:33N 37°49' W 122°20'0 0.0
2015-May-25 10:27N 37°49' W 122°20'0 0.0
2015-May-25 09:33N 37°49' W 122°20'0 0.0
2015-May-25 08:27N 37°49' W 122°20'0 0.0
2015-May-25 07:18N 37°49' W 122°20'0 0.0
2015-May-25 06:21N 37°49' W 122°20'0 0.0
2015-May-25 05:30N 37°49' W 122°20'0 0.0
2015-May-25 04:33N 37°49' W 122°20'0 0.0
2015-May-25 03:30N 37°49' W 122°20'0 0.0
2015-May-25 02:24N 37°49' W 122°20'0 0.0
2015-May-25 01:33N 37°49' W 122°20'0 0.0
2015-May-25 00:33N 37°49' W 122°20'0 0.0
2015-May-24 23:24N 37°49' W 122°20'0 0.0
2015-May-24 22:30N 37°49' W 122°20'0 0.0
2015-May-24 21:33N 37°49' W 122°20'0 0.0
2015-May-24 20:33N 37°49' W 122°20'0 0.0
2015-May-24 19:33N 37°49' W 122°20'0 0.0
2015-May-24 18:33N 37°49' W 122°20'0 0.0
2015-May-24 17:33N 37°49' W 122°20'0 0.0
2015-May-24 16:33N 37°49' W 122°20'0 0.0
2015-May-24 15:33N 37°49' W 122°20'0 0.0
2015-May-24 14:21N 37°49' W 122°20'0 0.0
2015-May-24 13:33N 37°49' W 122°20'2 2.4
2015-May-24 12:33N 37°48' W 122°23'1512.9
2015-May-24 11:26N 37°45' W 122°41'7812.9
2015-May-24 05:23N 36°28' W 122°18'1721.3
2015-May-24 04:33N 36°13' W 122°09'2221.6
2015-May-24 03:33N 35°54' W 121°56'2921.4
2015-May-24 02:13N 35°28' W 121°40'19614.1
2015-May-23 12:17N 33°46' W 118°16'0 0.0
2015-May-23 11:32N 33°46' W 118°16'0 0.0
2015-May-23 07:32N 33°46' W 118°16'0 0.0
2015-May-23 06:33N 33°46' W 118°16'0 0.0
2015-May-23 05:33N 33°46' W 118°16'0 0.0
2015-May-23 01:28N 33°46' W 118°16'0 0.0
2015-May-23 00:33N 33°46' W 118°16'0 0.0
2015-May-22 23:34N 33°46' W 118°16'0 0.0
2015-May-22 22:33N 33°46' W 118°16'0 0.0
2015-May-22 21:33N 33°46' W 118°16'0 0.0
2015-May-22 20:34N 33°46' W 118°16'0 0.0
2015-May-22 19:33N 33°46' W 118°16'0 0.0
2015-May-22 18:34N 33°46' W 118°16'0 0.0
2015-May-22 17:33N 33°46' W 118°16'0 0.0
2015-May-22 16:34N 33°46' W 118°16'0 0.0
2015-May-22 15:31N 33°46' W 118°16'0 0.0
2015-May-22 14:19N 33°46' W 118°16'0 0.0
2015-May-22 01:22N 33°46' W 118°16'0 0.0
2015-May-22 00:33N 33°46' W 118°16'0 0.0
2015-May-21 23:30N 33°46' W 118°16'0 0.0
2015-May-21 22:34N 33°46' W 118°16'0 0.0
2015-May-21 21:34N 33°46' W 118°16'0 0.0
2015-May-21 20:34N 33°46' W 118°16'0 0.0
2015-May-21 19:34N 33°46' W 118°16'0 0.0
2015-May-21 18:34N 33°46' W 118°16'0 0.0
2015-May-21 17:34N 33°46' W 118°16'0 0.0
2015-May-21 16:33N 33°46' W 118°16'0 0.0
2015-May-21 15:34N 33°46' W 118°16'  
2015-May-18 22:25N 33°45' W 118°16'  

Dump ship's entire track history